createdAt,value
2023-02-12T00:00:33.063Z,50.852924
2023-02-12T00:01:33.049Z,50.852924
2023-02-12T00:02:33.104Z,50.852924
2023-02-12T00:03:33.075Z,50.852806
2023-02-12T00:04:33.056Z,50.852818
2023-02-12T00:05:33.061Z,50.852859
2023-02-12T00:06:33.050Z,50.852863
2023-02-12T00:07:33.025Z,50.852909
2023-02-12T00:08:33.017Z,50.852962
2023-02-12T00:09:33.028Z,50.852936
2023-02-12T00:10:33.003Z,50.852936
2023-02-12T00:11:33.008Z,50.852936
2023-02-12T00:12:32.998Z,50.852936
2023-02-12T00:13:32.974Z,50.852882
2023-02-12T00:14:32.999Z,50.852798
2023-02-12T00:15:33.024Z,50.852798
2023-02-12T00:16:32.982Z,50.852798
2023-02-12T00:17:33.007Z,50.852798
2023-02-12T00:18:32.977Z,50.852798
2023-02-12T00:19:32.947Z,50.852798
2023-02-12T00:20:32.976Z,50.852798
2023-02-12T00:21:32.965Z,50.852798
2023-02-12T00:22:32.940Z,50.852798
2023-02-12T00:23:32.941Z,50.852798
2023-02-12T00:24:32.936Z,50.852798
2023-02-12T00:25:32.910Z,50.852798
2023-02-12T00:26:32.931Z,50.852798
2023-02-12T00:27:32.900Z,50.852798
2023-02-12T00:28:32.952Z,50.852798
2023-02-12T00:29:32.904Z,50.852798
2023-02-12T00:30:32.956Z,50.852798
2023-02-12T00:31:32.921Z,50.852798
2023-02-12T00:32:32.896Z,50.852798
2023-02-12T00:33:32.874Z,50.852798
2023-02-12T00:34:32.890Z,50.852798
2023-02-12T00:35:32.865Z,50.852798
2023-02-12T00:36:32.882Z,50.852798
2023-02-12T00:37:32.859Z,50.852798
2023-02-12T00:38:32.885Z,50.852798
2023-02-12T00:39:32.850Z,50.852798
2023-02-12T00:40:32.860Z,50.852798
2023-02-12T00:41:32.838Z,50.852798
2023-02-12T00:42:32.832Z,50.852798
2023-02-12T00:43:32.829Z,50.852798
2023-02-12T00:44:32.852Z,50.852798
2023-02-12T00:45:32.840Z,50.852798
2023-02-12T00:46:32.901Z,50.852798
2023-02-12T00:47:32.801Z,50.852798
2023-02-12T00:48:32.810Z,50.852798
2023-02-12T00:49:32.802Z,50.852798
2023-02-12T00:50:32.812Z,50.852798
2023-02-12T00:51:32.762Z,50.852798
2023-02-12T00:52:32.789Z,50.852798
2023-02-12T00:53:32.774Z,50.852798
2023-02-12T00:54:32.794Z,50.852726
2023-02-12T00:55:32.751Z,50.852680
2023-02-12T00:56:32.770Z,50.852680
2023-02-12T00:57:32.758Z,50.852825
2023-02-12T00:58:32.870Z,50.852871
2023-02-12T00:59:32.722Z,50.852798
2023-02-12T01:00:32.730Z,50.852837
2023-02-12T01:01:32.821Z,50.852837
2023-02-12T01:02:32.718Z,50.852676
2023-02-12T01:03:32.759Z,50.852676
2023-02-12T01:04:32.727Z,50.852676
2023-02-12T01:05:32.710Z,50.852703
2023-02-12T01:06:32.750Z,50.852814
2023-02-12T01:07:32.702Z,50.852814
2023-02-12T01:08:32.699Z,50.852814
2023-02-12T01:09:32.679Z,50.852814
2023-02-12T01:10:32.673Z,50.852814
2023-02-12T01:11:32.673Z,50.852814
2023-02-12T01:12:32.689Z,50.852814
2023-02-12T01:13:32.655Z,50.852814
2023-02-12T01:14:32.651Z,50.852814
2023-02-12T01:15:32.637Z,50.852814
2023-02-12T01:16:32.738Z,50.852814
2023-02-12T01:17:32.656Z,50.852814
2023-02-12T01:18:32.639Z,50.852814
2023-02-12T01:19:32.640Z,50.852814
2023-02-12T01:20:32.608Z,50.852814
2023-02-12T01:21:32.634Z,50.852814
2023-02-12T01:22:32.610Z,50.852814
2023-02-12T01:23:32.595Z,50.852814
2023-02-12T01:24:32.629Z,50.852814
2023-02-12T01:25:32.607Z,50.852814
2023-02-12T01:26:32.589Z,50.852814
2023-02-12T01:27:32.584Z,50.852814
2023-02-12T01:28:32.668Z,50.852814
2023-02-12T01:29:32.575Z,50.852814
2023-02-12T01:30:32.567Z,50.852814
2023-02-12T01:31:32.622Z,50.852814
2023-02-12T01:32:32.555Z,50.852814
2023-02-12T01:33:32.571Z,50.852814
2023-02-12T01:34:32.560Z,50.852814
2023-02-12T01:35:32.559Z,50.852814
2023-02-12T01:36:32.521Z,50.852814
2023-02-12T01:37:32.526Z,50.852814
2023-02-12T01:38:32.518Z,50.852814
2023-02-12T01:39:32.516Z,50.852814
2023-02-12T01:40:32.513Z,50.852814
2023-02-12T01:41:32.528Z,50.852814
2023-02-12T01:42:32.493Z,50.852814
2023-02-12T01:43:32.485Z,50.852814
2023-02-12T01:44:32.487Z,50.852814
2023-02-12T01:45:32.482Z,50.852814
2023-02-12T01:46:32.531Z,50.852814
2023-02-12T01:47:32.517Z,50.852814
2023-02-12T01:48:32.458Z,50.852814
2023-02-12T01:49:32.445Z,50.852814
2023-02-12T01:50:32.452Z,50.852814
2023-02-12T01:51:32.449Z,50.852814
2023-02-12T01:52:32.437Z,50.852814
2023-02-12T01:53:32.464Z,50.852814
2023-02-12T01:54:32.437Z,50.852814
2023-02-12T01:55:32.434Z,50.852814
2023-02-12T01:56:32.422Z,50.852814
2023-02-12T01:57:32.418Z,50.852814
2023-02-12T01:58:32.395Z,50.852814
2023-02-12T01:59:32.413Z,50.852814
2023-02-12T02:00:32.410Z,50.852814
2023-02-12T02:01:32.394Z,50.852814
2023-02-12T02:02:32.386Z,50.852814
2023-02-12T02:03:32.449Z,50.852814
2023-02-12T02:04:32.389Z,50.852814
2023-02-12T02:05:32.404Z,50.852814
2023-02-12T02:06:32.358Z,50.852814
2023-02-12T02:07:32.357Z,50.852814
2023-02-12T02:08:32.356Z,50.852814
2023-02-12T02:09:32.361Z,50.852814
2023-02-12T02:10:32.337Z,50.852814
2023-02-12T02:11:32.363Z,50.852814
2023-02-12T02:12:32.330Z,50.852814
2023-02-12T02:13:32.319Z,50.852814
2023-02-12T02:14:32.318Z,50.852814
2023-02-12T02:15:32.318Z,50.852814
2023-02-12T02:16:32.335Z,50.852814
2023-02-12T02:17:32.293Z,50.852814
2023-02-12T02:18:32.304Z,50.852814
2023-02-12T02:19:32.312Z,50.852814
2023-02-12T02:20:32.315Z,50.852814
2023-02-12T02:21:32.276Z,50.852814
2023-02-12T02:22:32.264Z,50.852814
2023-02-12T02:23:32.275Z,50.852814
2023-02-12T02:24:32.253Z,50.852814
2023-02-12T02:25:32.258Z,50.852814
2023-02-12T02:26:32.263Z,50.852814
2023-02-12T02:27:32.259Z,50.852814
2023-02-12T02:28:32.259Z,50.852814
2023-02-12T02:29:32.227Z,50.852814
2023-02-12T02:30:32.250Z,50.852814
2023-02-12T02:31:32.362Z,50.852814
2023-02-12T02:32:32.235Z,50.852814
2023-02-12T02:33:32.197Z,50.852814
2023-02-12T02:34:32.210Z,50.852814
2023-02-12T02:35:32.213Z,50.852814
2023-02-12T02:36:32.238Z,50.852814
2023-02-12T02:37:32.194Z,50.852814
2023-02-12T02:38:32.171Z,50.852814
2023-02-12T02:39:32.164Z,50.852814
2023-02-12T02:40:32.216Z,50.852814
2023-02-12T02:41:32.156Z,50.852814
2023-02-12T02:42:32.155Z,50.852814
2023-02-12T02:43:32.144Z,50.852814
2023-02-12T02:44:32.150Z,50.852814
2023-02-12T02:45:32.175Z,50.852814
2023-02-12T02:46:32.143Z,50.852814
2023-02-12T02:47:32.128Z,50.852814
2023-02-12T02:48:32.118Z,50.852814
2023-02-12T02:49:32.113Z,50.852814
2023-02-12T02:50:32.105Z,50.852814
2023-02-12T02:51:32.121Z,50.852814
2023-02-12T02:52:32.106Z,50.852814
2023-02-12T02:53:32.112Z,50.852814
2023-02-12T02:54:32.098Z,50.852814
2023-02-12T02:55:32.112Z,50.852814
2023-02-12T02:56:32.083Z,50.852814
2023-02-12T02:57:32.100Z,50.852814
2023-02-12T02:58:32.106Z,50.852814
2023-02-12T02:59:32.059Z,50.852814
2023-02-12T03:00:32.149Z,50.852814
2023-02-12T03:01:32.065Z,50.852814
2023-02-12T03:02:32.056Z,50.852814
2023-02-12T03:03:32.044Z,50.852814
2023-02-12T03:04:32.083Z,50.852814
2023-02-12T03:05:32.043Z,50.852814
2023-02-12T03:06:32.026Z,50.852814
2023-02-12T03:07:32.059Z,50.852814
2023-02-12T03:08:32.023Z,50.852463
2023-02-12T03:09:32.025Z,50.852573
2023-02-12T03:10:32.001Z,50.852516
2023-02-12T03:11:32.019Z,50.852516
2023-02-12T03:12:31.992Z,50.852688
2023-02-12T03:13:31.974Z,50.853008
2023-02-12T03:14:31.978Z,50.852734
2023-02-12T03:15:32.015Z,50.852734
2023-02-12T03:16:32.075Z,50.852489
2023-02-12T03:17:31.955Z,50.852379
2023-02-12T03:18:31.991Z,50.852337
2023-02-12T03:19:31.968Z,50.852413
2023-02-12T03:20:31.945Z,50.852413
2023-02-12T03:21:31.951Z,50.852558
2023-02-12T03:22:31.957Z,50.852680
2023-02-12T03:23:31.958Z,50.852776
2023-02-12T03:24:31.932Z,50.852783
2023-02-12T03:25:31.916Z,50.852627
2023-02-12T03:26:31.945Z,50.852676
2023-02-12T03:27:31.914Z,50.852703
2023-02-12T03:28:31.948Z,50.852856
2023-02-12T03:29:31.897Z,50.852676
2023-02-12T03:30:31.924Z,50.852615
2023-02-12T03:31:31.963Z,50.852657
2023-02-12T03:32:31.913Z,50.852634
2023-02-12T03:33:31.877Z,50.852680
2023-02-12T03:34:31.874Z,50.852684
2023-02-12T03:35:31.886Z,50.852757
2023-02-12T03:36:31.896Z,50.852730
2023-02-12T03:37:31.861Z,50.852798
2023-02-12T03:38:31.863Z,50.852840
2023-02-12T03:39:31.836Z,50.852741
2023-02-12T03:40:31.849Z,50.852737
2023-02-12T03:41:31.852Z,50.852722
2023-02-12T03:42:31.849Z,50.852634
2023-02-12T03:43:31.823Z,50.852646
2023-02-12T03:44:31.824Z,50.852627
2023-02-12T03:45:31.837Z,50.852768
2023-02-12T03:46:31.819Z,50.852730
2023-02-12T03:47:31.815Z,50.852825
2023-02-12T03:48:31.787Z,50.852905
2023-02-12T03:49:31.787Z,50.852833
2023-02-12T03:50:31.782Z,50.852882
2023-02-12T03:51:31.775Z,50.852886
2023-02-12T03:52:31.781Z,50.852890
2023-02-12T03:53:31.768Z,50.852955
2023-02-12T03:54:31.768Z,50.852890
2023-02-12T03:55:31.747Z,50.852993
2023-02-12T03:56:31.747Z,50.852985
2023-02-12T03:57:31.734Z,50.852844
2023-02-12T03:58:31.753Z,50.852669
2023-02-12T03:59:31.721Z,50.852749
2023-02-12T04:00:31.721Z,50.852867
2023-02-12T04:01:31.848Z,50.852795
2023-02-12T04:02:31.736Z,50.852634
2023-02-12T04:03:31.691Z,50.852791
2023-02-12T04:04:31.773Z,50.852924
2023-02-12T04:05:31.679Z,50.852863
2023-02-12T04:06:31.682Z,50.852798
2023-02-12T04:07:31.678Z,50.852798
2023-02-12T04:08:31.690Z,50.852852
2023-02-12T04:09:31.686Z,50.852982
2023-02-12T04:10:31.664Z,50.852852
2023-02-12T04:11:31.653Z,50.852818
2023-02-12T04:12:31.660Z,50.852768
2023-02-12T04:13:31.644Z,50.852867
2023-02-12T04:14:31.665Z,50.852798
2023-02-12T04:15:31.632Z,50.853001
2023-02-12T04:16:31.678Z,50.853168
2023-02-12T04:17:31.630Z,50.853138
2023-02-12T04:18:31.636Z,50.853279
2023-02-12T04:19:31.638Z,50.853279
2023-02-12T04:20:31.633Z,50.852619
2023-02-12T04:21:31.637Z,50.852806
2023-02-12T04:22:31.598Z,50.852867
2023-02-12T04:23:31.615Z,50.852707
2023-02-12T04:24:31.588Z,50.852753
2023-02-12T04:25:31.573Z,50.852848
2023-02-12T04:26:31.571Z,50.852848
2023-02-12T04:27:31.584Z,50.852890
2023-02-12T04:28:31.656Z,50.852955
2023-02-12T04:29:31.577Z,50.853081
2023-02-12T04:30:31.669Z,50.852943
2023-02-12T04:31:31.607Z,50.852955
2023-02-12T04:32:31.548Z,50.852955
2023-02-12T04:33:31.567Z,50.853104
2023-02-12T04:34:31.528Z,50.853188
2023-02-12T04:35:31.530Z,50.852871
2023-02-12T04:36:31.528Z,50.852779
2023-02-12T04:37:31.504Z,50.852737
2023-02-12T04:38:31.521Z,50.852848
2023-02-12T04:39:31.521Z,50.852783
2023-02-12T04:40:31.499Z,50.852745
2023-02-12T04:41:31.635Z,50.852825
2023-02-12T04:42:31.487Z,50.852676
2023-02-12T04:43:31.477Z,50.852753
2023-02-12T04:44:31.485Z,50.852802
2023-02-12T04:45:31.497Z,50.852730
2023-02-12T04:46:31.546Z,50.852760
2023-02-12T04:47:31.460Z,50.852859
2023-02-12T04:48:31.458Z,50.852711
2023-02-12T04:49:31.453Z,50.853107
2023-02-12T04:50:31.463Z,50.852962
2023-02-12T04:51:31.444Z,50.852764
2023-02-12T04:52:31.444Z,50.852806
2023-02-12T04:53:31.443Z,50.852844
2023-02-12T04:54:31.445Z,50.852818
2023-02-12T04:55:31.420Z,50.852844
2023-02-12T04:56:31.417Z,50.852852
2023-02-12T04:57:31.411Z,50.852852
2023-02-12T04:58:31.425Z,50.852791
2023-02-12T04:59:31.413Z,50.852585
2023-02-12T05:00:31.399Z,50.852875
2023-02-12T05:01:31.620Z,50.852818
2023-02-12T05:02:31.398Z,50.851982
2023-02-12T05:03:31.376Z,50.852432
2023-02-12T05:04:31.380Z,50.852882
2023-02-12T05:05:31.397Z,50.852940
2023-02-12T05:06:31.362Z,50.853207
2023-02-12T05:07:31.352Z,50.852997
2023-02-12T05:08:31.356Z,50.852764
2023-02-12T05:09:31.338Z,50.852749
2023-02-12T05:10:31.343Z,50.852852
2023-02-12T05:11:31.352Z,50.852661
2023-02-12T05:12:31.324Z,50.852669
2023-02-12T05:13:31.321Z,50.852711
2023-02-12T05:14:31.316Z,50.853245
2023-02-12T05:15:31.369Z,50.852795
2023-02-12T05:16:31.329Z,50.853115
2023-02-12T05:17:31.304Z,50.853111
2023-02-12T05:18:31.294Z,50.852947
2023-02-12T05:19:31.299Z,50.853069
2023-02-12T05:20:31.278Z,50.852947
2023-02-12T05:21:31.284Z,50.852871
2023-02-12T05:22:31.292Z,50.852879
2023-02-12T05:23:31.260Z,50.852867
2023-02-12T05:24:31.294Z,50.852886
2023-02-12T05:25:31.256Z,50.852840
2023-02-12T05:26:31.283Z,50.852581
2023-02-12T05:27:31.244Z,50.852654
2023-02-12T05:28:31.307Z,50.852962
2023-02-12T05:29:31.236Z,50.852947
2023-02-12T05:30:31.251Z,50.852879
2023-02-12T05:31:31.332Z,50.853046
2023-02-12T05:32:31.218Z,50.853111
2023-02-12T05:33:31.218Z,50.853191
2023-02-12T05:34:31.209Z,50.853493
2023-02-12T05:35:31.236Z,50.853489
2023-02-12T05:36:31.229Z,50.853012
2023-02-12T05:37:31.193Z,50.852760
2023-02-12T05:38:31.177Z,50.852676
2023-02-12T05:39:31.175Z,50.852680
2023-02-12T05:40:31.168Z,50.852257
2023-02-12T05:41:31.166Z,50.852131
2023-02-12T05:42:31.193Z,50.852264
2023-02-12T05:43:31.148Z,50.852421
2023-02-12T05:44:31.145Z,50.852501
2023-02-12T05:45:31.137Z,50.852383
2023-02-12T05:46:31.198Z,50.852478
2023-02-12T05:47:31.154Z,50.852581
2023-02-12T05:48:31.127Z,50.852711
2023-02-12T05:49:31.117Z,50.852646
2023-02-12T05:50:31.110Z,50.852726
2023-02-12T05:51:31.099Z,50.852737
2023-02-12T05:52:31.126Z,50.852783
2023-02-12T05:53:31.097Z,50.852734
2023-02-12T05:54:31.120Z,50.852676
2023-02-12T05:55:31.080Z,50.852547
2023-02-12T05:56:31.096Z,50.852604
2023-02-12T05:57:31.059Z,50.852741
2023-02-12T05:58:31.110Z,50.852695
2023-02-12T05:59:31.052Z,50.852631
2023-02-12T06:00:31.091Z,50.852459
2023-02-12T06:01:31.050Z,50.852242
2023-02-12T06:02:31.083Z,50.852364
2023-02-12T06:03:31.055Z,50.852718
2023-02-12T06:04:31.060Z,50.852684
2023-02-12T06:05:31.022Z,50.853004
2023-02-12T06:06:31.024Z,50.852844
2023-02-12T06:07:31.030Z,50.852703
2023-02-12T06:08:31.017Z,50.852829
2023-02-12T06:09:30.998Z,50.852833
2023-02-12T06:10:31.016Z,50.852898
2023-02-12T06:11:30.991Z,50.853077
2023-02-12T06:12:31.004Z,50.852901
2023-02-12T06:13:30.997Z,50.852932
2023-02-12T06:14:32.097Z,50.852974
2023-02-12T06:15:30.967Z,50.853027
2023-02-12T06:16:31.025Z,50.853027
2023-02-12T06:17:30.994Z,50.852932
2023-02-12T06:18:30.950Z,50.852837
2023-02-12T06:19:30.936Z,50.852646
2023-02-12T06:20:30.946Z,50.852654
2023-02-12T06:21:30.929Z,50.852371
2023-02-12T06:22:30.924Z,50.852238
2023-02-12T06:23:30.938Z,50.852486
2023-02-12T06:24:30.920Z,50.852753
2023-02-12T06:25:30.926Z,50.852764
2023-02-12T06:26:30.919Z,50.852573
2023-02-12T06:27:30.909Z,50.852463
2023-02-12T06:28:30.969Z,50.852757
2023-02-12T06:29:30.923Z,50.852585
2023-02-12T06:30:30.881Z,50.852451
2023-02-12T06:31:31.066Z,50.852463
2023-02-12T06:32:30.932Z,50.852467
2023-02-12T06:33:30.938Z,50.852520
2023-02-12T06:34:30.880Z,50.852432
2023-02-12T06:35:30.874Z,50.852505
2023-02-12T06:36:30.856Z,50.852554
2023-02-12T06:37:30.936Z,50.852665
2023-02-12T06:38:30.873Z,50.852776
2023-02-12T06:39:30.849Z,50.852711
2023-02-12T06:40:30.840Z,50.853809
2023-02-12T06:41:30.859Z,50.852943
2023-02-12T06:42:32.983Z,50.852905
2023-02-12T06:43:30.855Z,50.852737
2023-02-12T06:44:30.816Z,50.852814
2023-02-12T06:45:30.827Z,50.852757
2023-02-12T06:46:30.864Z,50.852654
2023-02-12T06:47:30.845Z,50.852814
2023-02-12T06:48:30.810Z,50.852577
2023-02-12T06:49:30.798Z,50.852661
2023-02-12T06:50:30.792Z,50.852753
2023-02-12T06:51:30.777Z,50.852657
2023-02-12T06:52:30.802Z,50.852646
2023-02-12T06:53:30.778Z,50.852753
2023-02-12T06:54:30.783Z,50.852745
2023-02-12T06:55:30.782Z,50.852741
2023-02-12T06:56:30.771Z,50.852837
2023-02-12T06:57:30.757Z,50.852768
2023-02-12T06:58:30.763Z,50.852856
2023-02-12T06:59:30.749Z,50.852837
2023-02-12T07:00:30.891Z,50.852764
2023-02-12T07:01:30.763Z,50.852688
2023-02-12T07:02:30.734Z,50.852787
2023-02-12T07:03:30.723Z,50.852703
2023-02-12T07:04:30.723Z,50.852703
2023-02-12T07:05:30.714Z,50.852703
2023-02-12T07:06:30.722Z,50.852703
2023-02-12T07:07:30.720Z,50.852703
2023-02-12T07:08:30.709Z,50.852703
2023-02-12T07:09:30.688Z,50.852703
2023-02-12T07:10:30.723Z,50.852703
2023-02-12T07:11:30.689Z,50.852703
2023-02-12T07:12:30.721Z,50.852703
2023-02-12T07:13:30.687Z,50.852703
2023-02-12T07:14:30.693Z,50.852703
2023-02-12T07:15:30.685Z,50.852703
2023-02-12T07:16:30.704Z,50.852703
2023-02-12T07:17:30.638Z,50.852703
2023-02-12T07:18:30.703Z,50.852703
2023-02-12T07:19:30.625Z,50.852703
2023-02-12T07:20:30.717Z,50.852703
2023-02-12T07:21:30.630Z,50.852703
2023-02-12T07:22:30.618Z,50.852703
2023-02-12T07:23:30.610Z,50.852703
2023-02-12T07:24:30.625Z,50.852703
2023-02-12T07:25:30.615Z,50.852734
2023-02-12T07:26:30.617Z,50.852734
2023-02-12T07:27:30.596Z,50.852840
2023-02-12T07:28:30.614Z,50.852840
2023-02-12T07:29:30.574Z,50.852840
2023-02-12T07:30:30.833Z,50.852840
2023-02-12T07:31:30.673Z,50.852840
2023-02-12T07:32:30.570Z,50.852840
2023-02-12T07:33:30.551Z,50.852840
2023-02-12T07:34:30.542Z,50.852840
2023-02-12T07:35:30.536Z,50.852840
2023-02-12T07:36:30.553Z,50.852459
2023-02-12T07:37:30.529Z,50.852489
2023-02-12T07:38:30.523Z,50.852489
2023-02-12T07:39:30.524Z,50.852489
2023-02-12T07:40:30.522Z,50.852489
2023-02-12T07:41:30.536Z,50.852489
2023-02-12T07:42:30.511Z,50.852489
2023-02-12T07:43:30.497Z,50.852566
2023-02-12T07:44:30.494Z,50.852566
2023-02-12T07:45:30.497Z,50.852577
2023-02-12T07:46:30.524Z,50.852428
2023-02-12T07:47:30.474Z,50.852707
2023-02-12T07:48:30.482Z,50.852760
2023-02-12T07:49:30.473Z,50.852776
2023-02-12T07:50:30.477Z,50.852776
2023-02-12T07:51:30.475Z,50.852776
2023-02-12T07:52:30.470Z,50.852776
2023-02-12T07:53:30.435Z,50.852951
2023-02-12T07:54:30.450Z,50.852932
2023-02-12T07:55:30.430Z,50.852932
2023-02-12T07:56:30.439Z,50.852882
2023-02-12T07:57:30.414Z,50.852882
2023-02-12T07:58:30.428Z,50.852882
2023-02-12T07:59:30.410Z,50.852821
2023-02-12T08:00:30.397Z,50.852833
2023-02-12T08:01:30.412Z,50.852959
2023-02-12T08:02:30.415Z,50.852806
2023-02-12T08:03:30.373Z,50.852757
2023-02-12T08:04:30.535Z,50.852848
2023-02-12T08:05:30.392Z,50.852787
2023-02-12T08:06:30.362Z,50.852806
2023-02-12T08:07:30.369Z,50.852749
2023-02-12T08:08:30.359Z,50.852749
2023-02-12T08:09:30.389Z,50.852749
2023-02-12T08:10:32.395Z,50.852749
2023-02-12T08:11:30.351Z,50.852749
2023-02-12T08:12:30.385Z,50.852749
2023-02-12T08:13:30.353Z,50.852749
2023-02-12T08:14:30.361Z,50.852749
2023-02-12T08:15:30.320Z,50.852749
2023-02-12T08:16:30.358Z,50.852749
2023-02-12T08:17:30.320Z,50.852726
2023-02-12T08:18:30.313Z,50.852955
2023-02-12T08:19:30.299Z,50.852787
2023-02-12T08:20:30.324Z,50.852695
2023-02-12T08:21:30.293Z,50.852898
2023-02-12T08:22:30.291Z,50.852741
2023-02-12T08:23:30.281Z,50.852814
2023-02-12T08:24:30.301Z,50.852711
2023-02-12T08:25:30.271Z,50.852806
2023-02-12T08:26:30.286Z,50.852833
2023-02-12T08:27:30.300Z,50.852802
2023-02-12T08:28:30.276Z,50.852726
2023-02-12T08:29:30.271Z,50.852554
2023-02-12T08:30:30.246Z,50.852493
2023-02-12T08:31:30.262Z,50.852493
2023-02-12T08:32:30.293Z,50.852493
2023-02-12T08:33:30.242Z,50.852493
2023-02-12T08:34:30.225Z,50.852493
2023-02-12T08:35:30.229Z,50.852493
2023-02-12T08:36:30.208Z,50.852493
2023-02-12T08:37:30.202Z,50.852493
2023-02-12T08:38:30.211Z,50.852814
2023-02-12T08:39:30.190Z,50.852768
2023-02-12T08:40:30.226Z,50.852741
2023-02-12T08:41:30.211Z,50.852577
2023-02-12T08:42:30.181Z,50.852722
2023-02-12T08:43:30.194Z,50.852810
2023-02-12T08:44:30.182Z,50.852818
2023-02-12T08:45:30.171Z,50.852802
2023-02-12T08:46:30.210Z,50.852814
2023-02-12T08:47:31.403Z,50.852798
2023-02-12T08:48:30.156Z,50.852783
2023-02-12T08:49:30.152Z,50.852802
2023-02-12T08:50:30.169Z,50.852695
2023-02-12T08:51:30.123Z,50.852760
2023-02-12T08:52:30.200Z,50.852821
2023-02-12T08:53:30.157Z,50.852749
2023-02-12T08:54:30.138Z,50.852852
2023-02-12T08:55:30.121Z,50.852856
2023-02-12T08:56:30.132Z,50.852711
2023-02-12T08:57:30.137Z,50.852741
2023-02-12T08:58:30.115Z,50.852699
2023-02-12T08:59:30.113Z,50.852772
2023-02-12T09:00:30.128Z,50.852772
2023-02-12T09:01:30.136Z,50.852879
2023-02-12T09:02:30.087Z,50.852821
2023-02-12T09:03:30.059Z,50.852779
2023-02-12T09:04:30.090Z,50.852757
2023-02-12T09:05:30.044Z,50.852829
2023-02-12T09:06:30.067Z,50.852859
2023-02-12T09:07:30.051Z,50.852818
2023-02-12T09:08:30.060Z,50.852818
2023-02-12T09:09:30.065Z,50.852867
2023-02-12T09:10:30.024Z,50.852886
2023-02-12T09:11:30.033Z,50.852795
2023-02-12T09:12:30.034Z,50.852825
2023-02-12T09:13:30.025Z,50.852802
2023-02-12T09:14:30.001Z,50.852814
2023-02-12T09:15:29.998Z,50.852814
2023-02-12T09:16:30.064Z,50.852802
2023-02-12T09:17:29.995Z,50.852779
2023-02-12T09:18:29.984Z,50.852814
2023-02-12T09:19:29.978Z,50.852821
2023-02-12T09:20:29.966Z,50.852806
2023-02-12T09:21:29.969Z,50.852821
2023-02-12T09:22:29.952Z,50.852825
2023-02-12T09:23:29.963Z,50.852833
2023-02-12T09:24:29.941Z,50.852810
2023-02-12T09:25:29.943Z,50.852718
2023-02-12T09:26:29.959Z,50.852776
2023-02-12T09:27:31.354Z,50.852833
2023-02-12T09:28:29.986Z,50.852821
2023-02-12T09:29:29.951Z,50.852783
2023-02-12T09:30:29.929Z,50.852848
2023-02-12T09:31:30.045Z,50.852772
2023-02-12T09:32:29.897Z,50.852741
2023-02-12T09:33:29.923Z,50.852798
2023-02-12T09:34:29.897Z,50.852676
2023-02-12T09:35:29.906Z,50.852798
2023-02-12T09:36:29.901Z,50.852730
2023-02-12T09:37:29.877Z,50.852821
2023-02-12T09:38:29.922Z,50.852806
2023-02-12T09:39:29.932Z,50.852779
2023-02-12T09:40:29.872Z,50.852772
2023-02-12T09:41:29.876Z,50.852707
2023-02-12T09:42:29.888Z,50.852455
2023-02-12T09:43:29.844Z,50.852718
2023-02-12T09:44:29.911Z,50.852783
2023-02-12T09:45:29.880Z,50.852837
2023-02-12T09:46:29.881Z,50.852737
2023-02-12T09:47:29.818Z,50.852825
2023-02-12T09:48:29.830Z,50.852886
2023-02-12T09:49:29.823Z,50.852814
2023-02-12T09:50:29.823Z,50.852657
2023-02-12T09:51:29.836Z,50.852791
2023-02-12T09:52:29.806Z,50.852741
2023-02-12T09:53:29.786Z,50.852730
2023-02-12T09:54:29.805Z,50.852768
2023-02-12T09:55:29.785Z,50.852791
2023-02-12T09:56:29.793Z,50.852806
2023-02-12T09:57:29.786Z,50.852741
2023-02-12T09:58:29.796Z,50.852711
2023-02-12T09:59:29.779Z,50.852730
2023-02-12T10:00:29.794Z,50.852791
2023-02-12T10:01:29.857Z,50.852688
2023-02-12T10:02:29.747Z,50.852711
2023-02-12T10:03:29.755Z,50.852772
2023-02-12T10:04:29.785Z,50.852757
2023-02-12T10:05:29.758Z,50.852516
2023-02-12T10:06:29.763Z,50.852589
2023-02-12T10:07:29.728Z,50.852684
2023-02-12T10:08:29.761Z,50.852821
2023-02-12T10:09:29.720Z,50.852863
2023-02-12T10:10:29.710Z,50.852722
2023-02-12T10:11:29.750Z,50.852737
2023-02-12T10:12:29.710Z,50.852757
2023-02-12T10:13:29.692Z,50.852711
2023-02-12T10:14:29.705Z,50.852802
2023-02-12T10:15:29.713Z,50.852726
2023-02-12T10:16:29.675Z,50.852692
2023-02-12T10:17:29.692Z,50.852684
2023-02-12T10:18:29.688Z,50.852837
2023-02-12T10:19:29.670Z,50.852741
2023-02-12T10:20:29.679Z,50.852657
2023-02-12T10:21:29.686Z,50.852745
2023-02-12T10:22:29.648Z,50.852753
2023-02-12T10:23:29.667Z,50.852863
2023-02-12T10:24:29.651Z,50.852692
2023-02-12T10:25:29.646Z,50.852684
2023-02-12T10:26:29.659Z,50.852779
2023-02-12T10:27:29.626Z,50.852585
2023-02-12T10:28:29.799Z,50.852741
2023-02-12T10:29:29.611Z,50.852711
2023-02-12T10:30:29.608Z,50.852703
2023-02-12T10:31:30.578Z,50.852730
2023-02-12T10:32:29.588Z,50.852680
2023-02-12T10:33:29.585Z,50.852676
2023-02-12T10:34:29.585Z,50.852417
2023-02-12T10:35:29.572Z,50.852646
2023-02-12T10:36:29.557Z,50.852448
2023-02-12T10:37:29.571Z,50.852577
2023-02-12T10:38:29.570Z,50.852791
2023-02-12T10:39:29.536Z,50.852718
2023-02-12T10:40:29.557Z,50.852692
2023-02-12T10:41:29.520Z,50.852619
2023-02-12T10:42:29.525Z,50.852810
2023-02-12T10:43:29.522Z,50.852753
2023-02-12T10:44:29.544Z,50.852703
2023-02-12T10:45:29.500Z,50.852722
2023-02-12T10:46:29.613Z,50.852711
2023-02-12T10:47:29.487Z,50.853039
2023-02-12T10:48:29.490Z,50.852966
2023-02-12T10:49:29.499Z,50.852615
2023-02-12T10:50:29.516Z,50.852715
2023-02-12T10:51:29.490Z,50.852463
2023-02-12T10:52:29.484Z,50.852661
2023-02-12T10:53:29.460Z,50.852451
2023-02-12T10:54:29.461Z,50.852558
2023-02-12T10:55:29.474Z,50.852814
2023-02-12T10:56:29.448Z,50.853016
2023-02-12T10:57:29.475Z,50.852806
2023-02-12T10:58:29.449Z,50.852703
2023-02-12T10:59:29.462Z,50.852734
2023-02-12T11:00:29.433Z,50.852722
2023-02-12T11:01:29.477Z,50.852722
2023-02-12T11:02:29.438Z,50.852978
2023-02-12T11:03:29.432Z,50.852955
2023-02-12T11:04:29.399Z,50.852951
2023-02-12T11:05:29.401Z,50.852848
2023-02-12T11:06:29.384Z,50.852898
2023-02-12T11:07:29.425Z,50.852970
2023-02-12T11:08:29.390Z,50.853016
2023-02-12T11:09:29.381Z,50.852859
2023-02-12T11:10:29.407Z,50.852772
2023-02-12T11:11:29.388Z,50.852879
2023-02-12T11:12:29.375Z,50.852905
2023-02-12T11:13:29.374Z,50.852757
2023-02-12T11:14:29.357Z,50.852795
2023-02-12T11:15:29.341Z,50.852684
2023-02-12T11:16:29.452Z,50.852844
2023-02-12T11:17:29.336Z,50.852848
2023-02-12T11:18:29.326Z,50.852646
2023-02-12T11:19:29.348Z,50.852692
2023-02-12T11:20:29.302Z,50.852829
2023-02-12T11:21:29.312Z,50.852829
2023-02-12T11:22:29.291Z,50.852798
2023-02-12T11:23:29.293Z,50.852844
2023-02-12T11:24:29.301Z,50.852898